createdAt,value
2023-12-10T00:01:29.259Z,9.02
2023-12-10T00:04:08.601Z,9.15
2023-12-10T00:06:53.160Z,9.12
2023-12-10T00:09:32.567Z,9.08
2023-12-10T00:12:12.356Z,9.01
2023-12-10T00:14:56.381Z,9.02
2023-12-10T00:17:35.704Z,9.02
2023-12-10T00:20:16.761Z,8.98
2023-12-10T00:23:01.132Z,8.93
2023-12-10T00:25:43.238Z,8.90
2023-12-10T00:28:22.540Z,8.87
2023-12-10T00:31:01.842Z,8.87
2023-12-10T00:33:41.223Z,8.90
2023-12-10T00:36:20.874Z,8.90
2023-12-10T00:39:07.420Z,8.95
2023-12-10T00:41:46.679Z,8.98
2023-12-10T00:44:26.088Z,9.11
2023-12-10T00:47:05.419Z,9.11
2023-12-10T00:49:44.795Z,8.97
2023-12-10T00:52:24.138Z,8.92
2023-12-10T00:55:08.498Z,8.91
2023-12-10T00:57:47.870Z,8.90
2023-12-10T01:00:27.462Z,9.18
2023-12-10T01:03:06.791Z,8.92
2023-12-10T01:05:46.206Z,8.84
2023-12-10T01:08:25.621Z,8.93
2023-12-10T01:11:10.030Z,8.97
2023-12-10T01:13:50.722Z,8.90
2023-12-10T01:16:30.044Z,8.94
2023-12-10T01:19:09.483Z,8.90
2023-12-10T01:21:49.469Z,9.08
2023-12-10T01:24:29.193Z,8.89
2023-12-10T01:27:13.704Z,8.81
2023-12-10T01:29:53.212Z,8.77
2023-12-10T01:32:32.863Z,8.79
2023-12-10T01:35:13.402Z,8.92
2023-12-10T01:37:53.310Z,8.92
2023-12-10T01:40:32.643Z,8.89
2023-12-10T01:43:19.930Z,8.94
2023-12-10T01:45:59.892Z,9.15
2023-12-10T01:48:39.498Z,9.16
2023-12-10T01:51:19.593Z,9.06
2023-12-10T01:53:59.522Z,9.03
2023-12-10T01:56:42.456Z,9.00
2023-12-10T01:59:29.910Z,8.96
2023-12-10T02:02:09.942Z,8.92
2023-12-10T02:04:49.528Z,8.90
2023-12-10T02:07:30.100Z,8.91
2023-12-10T02:10:11.985Z,9.14
2023-12-10T02:12:54.533Z,8.96
2023-12-10T02:15:40.030Z,8.93
2023-12-10T02:18:22.335Z,8.87
2023-12-10T02:21:02.184Z,8.85
2023-12-10T02:23:58.278Z,8.82
2023-12-10T02:26:43.252Z,9.01
2023-12-10T02:29:22.710Z,9.42
2023-12-10T02:32:02.108Z,9.53
2023-12-10T02:34:41.500Z,9.23
2023-12-10T02:37:20.889Z,9.09
2023-12-10T02:40:00.618Z,9.01
2023-12-10T02:42:45.204Z,9.05
2023-12-10T02:45:24.889Z,9.07
2023-12-10T02:48:04.405Z,8.97
2023-12-10T02:50:43.843Z,8.99
2023-12-10T02:53:23.208Z,9.06
2023-12-10T02:56:02.538Z,9.11
2023-12-10T02:58:47.105Z,9.11
2023-12-10T03:01:26.460Z,9.08
2023-12-10T03:04:05.880Z,8.95
2023-12-10T03:06:45.249Z,9.27
2023-12-10T03:09:24.601Z,9.00
2023-12-10T03:12:03.928Z,8.35
2023-12-10T03:14:48.434Z,8.12
2023-12-10T03:17:27.864Z,8.09
2023-12-10T03:20:07.280Z,8.05
2023-12-10T03:22:46.840Z,8.01
2023-12-10T03:25:26.592Z,8.01
2023-12-10T03:28:06.035Z,8.00
2023-12-10T03:30:50.518Z,8.29
2023-12-10T03:33:29.991Z,8.39
2023-12-10T03:36:09.419Z,8.38
2023-12-10T03:38:49.461Z,8.30
2023-12-10T03:41:28.737Z,8.52
2023-12-10T03:44:08.056Z,8.43
2023-12-10T03:46:52.397Z,8.32
2023-12-10T03:49:31.838Z,9.39
2023-12-10T03:52:11.657Z,9.26
2023-12-10T03:54:50.979Z,9.34
2023-12-10T03:57:30.306Z,9.09
2023-12-10T04:00:06.956Z,8.82
2023-12-10T04:02:51.330Z,8.51
2023-12-10T04:05:30.649Z,8.29
2023-12-10T04:08:10.192Z,8.41
2023-12-10T04:10:49.511Z,8.15
2023-12-10T04:13:28.862Z,8.11
2023-12-10T04:16:08.151Z,8.03
2023-12-10T04:18:52.612Z,7.96
2023-12-10T04:21:31.986Z,7.91
2023-12-10T04:24:12.064Z,7.82
2023-12-10T04:26:51.392Z,7.79
2023-12-10T04:29:30.655Z,8.02
2023-12-10T04:32:09.963Z,8.01
2023-12-10T04:34:55.050Z,7.96
2023-12-10T04:37:34.390Z,7.91
2023-12-10T04:40:15.577Z,8.76
2023-12-10T04:42:54.851Z,8.60
2023-12-10T04:45:34.112Z,8.32
2023-12-10T04:48:13.944Z,8.25
2023-12-10T04:50:58.466Z,8.10
2023-12-10T04:53:37.733Z,8.78
2023-12-10T04:56:18.142Z,8.62
2023-12-10T04:58:57.410Z,8.50
2023-12-10T05:01:36.905Z,8.35
2023-12-10T05:04:17.891Z,8.28
2023-12-10T05:07:02.263Z,8.20
2023-12-10T05:09:41.725Z,8.20
2023-12-10T05:12:21.112Z,8.26
2023-12-10T05:15:00.436Z,8.27
2023-12-10T05:17:39.861Z,8.13
2023-12-10T05:20:19.662Z,8.12
2023-12-10T05:23:04.149Z,8.05
2023-12-10T05:25:43.508Z,8.01
2023-12-10T05:28:22.752Z,7.96
2023-12-10T05:31:02.032Z,7.98
2023-12-10T05:33:42.434Z,8.01
2023-12-10T05:36:21.830Z,7.96
2023-12-10T05:39:06.210Z,7.99
2023-12-10T05:41:45.704Z,8.17
2023-12-10T05:44:25.247Z,8.14
2023-12-10T05:47:05.035Z,8.12
2023-12-10T05:49:44.407Z,8.50
2023-12-10T05:52:23.697Z,8.62
2023-12-10T05:55:08.090Z,8.47
2023-12-10T05:57:47.395Z,8.46
2023-12-10T06:00:26.922Z,8.39
2023-12-10T06:03:06.272Z,8.48
2023-12-10T06:05:45.529Z,8.76
2023-12-10T06:08:24.921Z,8.54
2023-12-10T06:11:09.249Z,8.39
2023-12-10T06:13:48.616Z,8.41
2023-12-10T06:16:27.896Z,8.42
2023-12-10T06:19:07.336Z,8.37
2023-12-10T06:21:46.736Z,8.56
2023-12-10T06:24:26.146Z,8.51
2023-12-10T06:27:10.533Z,8.45
2023-12-10T06:29:49.842Z,8.51
2023-12-10T06:32:30.554Z,8.70
2023-12-10T06:35:10.197Z,8.58
2023-12-10T06:37:49.480Z,8.53
2023-12-10T06:40:28.856Z,8.64
2023-12-10T06:43:13.249Z,8.65
2023-12-10T06:45:53.833Z,8.50
2023-12-10T06:48:35.950Z,8.53
2023-12-10T06:51:15.512Z,8.42
2023-12-10T06:53:54.792Z,8.47
2023-12-10T06:56:35.655Z,8.42
2023-12-10T06:59:20.016Z,8.44
2023-12-10T07:01:59.423Z,8.46
2023-12-10T07:04:38.728Z,8.51
2023-12-10T07:07:18.081Z,8.52
2023-12-10T07:09:57.648Z,8.60
2023-12-10T07:12:36.969Z,8.85
2023-12-10T07:15:21.659Z,8.88
2023-12-10T07:18:01.009Z,8.99
2023-12-10T07:20:40.296Z,8.76
2023-12-10T07:23:19.576Z,8.73
2023-12-10T07:25:58.850Z,8.80
2023-12-10T07:28:38.156Z,8.78
2023-12-10T07:31:22.525Z,8.72
2023-12-10T07:34:02.276Z,8.71
2023-12-10T07:36:41.945Z,8.92
2023-12-10T07:39:21.524Z,8.94
2023-12-10T07:42:01.296Z,8.98
2023-12-10T07:44:40.864Z,8.72
2023-12-10T07:47:25.272Z,8.65
2023-12-10T07:50:04.541Z,8.60
2023-12-10T07:52:43.850Z,8.63
2023-12-10T07:55:23.316Z,8.58
2023-12-10T07:58:02.939Z,8.56
2023-12-10T08:00:42.355Z,9.34
2023-12-10T08:03:26.927Z,9.35
2023-12-10T08:06:06.226Z,9.13
2023-12-10T08:08:45.516Z,9.02
2023-12-10T08:11:24.898Z,8.89
2023-12-10T08:14:04.362Z,8.89
2023-12-10T08:16:43.733Z,8.92
2023-12-10T08:19:29.185Z,9.13
2023-12-10T08:22:09.141Z,9.25
2023-12-10T08:24:48.726Z,9.07
2023-12-10T08:27:28.066Z,8.98
2023-12-10T08:30:07.432Z,8.95
2023-12-10T08:32:46.801Z,8.98
2023-12-10T08:35:31.438Z,8.98
2023-12-10T08:38:10.726Z,9.17
2023-12-10T08:40:50.196Z,9.38
2023-12-10T08:43:29.506Z,9.27
2023-12-10T08:46:08.826Z,10.00
2023-12-10T08:48:48.564Z,9.28
2023-12-10T08:51:33.174Z,9.19
2023-12-10T08:54:12.497Z,9.16
2023-12-10T08:56:51.775Z,9.39
2023-12-10T08:59:31.045Z,9.84
2023-12-10T09:02:10.381Z,9.92
2023-12-10T09:04:49.687Z,9.57
2023-12-10T09:07:34.220Z,9.68
2023-12-10T09:10:14.253Z,9.51
2023-12-10T09:12:53.817Z,9.43
2023-12-10T09:15:33.301Z,9.37
2023-12-10T09:18:12.757Z,9.41
2023-12-10T09:20:52.107Z,9.71
2023-12-10T09:23:36.942Z,10.04
2023-12-10T09:26:16.194Z,9.99
2023-12-10T09:28:55.569Z,9.90
2023-12-10T09:31:35.053Z,9.89
2023-12-10T09:34:15.220Z,9.89
2023-12-10T09:36:54.602Z,10.02
2023-12-10T09:39:39.193Z,9.96
2023-12-10T09:42:18.616Z,10.84
2023-12-10T09:44:57.942Z,10.84
2023-12-10T09:47:39.295Z,11.06
2023-12-10T09:50:18.849Z,10.97
2023-12-10T09:52:58.211Z,10.83
2023-12-10T09:55:43.800Z,10.75
2023-12-10T09:58:23.139Z,12.03
2023-12-10T10:01:07.534Z,12.75
2023-12-10T10:03:46.978Z,12.71
2023-12-10T10:06:26.385Z,12.86
2023-12-10T10:09:05.781Z,12.94
2023-12-10T10:11:55.420Z,13.98
2023-12-10T10:14:34.808Z,14.27
2023-12-10T10:17:14.137Z,13.37
2023-12-10T10:19:56.701Z,12.48
2023-12-10T10:22:36.243Z,11.37
2023-12-10T10:25:16.525Z,12.18
2023-12-10T10:28:01.424Z,11.91
2023-12-10T10:30:40.873Z,13.02
2023-12-10T10:33:23.769Z,10.50
2023-12-10T10:36:03.481Z,13.92
2023-12-10T10:38:43.423Z,14.78
2023-12-10T10:41:23.160Z,13.34
2023-12-10T10:44:07.552Z,11.98
2023-12-10T10:46:47.116Z,12.14
2023-12-10T10:49:27.297Z,13.32
2023-12-10T10:52:09.235Z,12.94
2023-12-10T10:54:49.759Z,12.74
2023-12-10T10:57:39.758Z,13.40
2023-12-10T11:00:42.462Z,13.43
2023-12-10T11:03:24.571Z,12.88
2023-12-10T11:06:06.637Z,12.92
2023-12-10T11:09:03.533Z,12.98
2023-12-10T11:11:46.387Z,13.00
2023-12-10T11:14:30.737Z,13.49
2023-12-10T11:17:18.217Z,13.87
2023-12-10T11:20:05.586Z,14.03
2023-12-10T11:22:44.920Z,13.99
2023-12-10T11:25:24.318Z,14.04
2023-12-10T11:28:03.859Z,14.33
2023-12-10T11:30:43.393Z,14.81
2023-12-10T11:33:27.955Z,15.64
2023-12-10T11:36:33.077Z,13.76
2023-12-10T11:39:07.750Z,15.75
2023-12-10T11:41:56.695Z,17.88
2023-12-10T11:44:43.960Z,17.38
2023-12-10T11:47:24.682Z,17.43
2023-12-10T11:50:12.236Z,18.50
2023-12-10T11:52:51.668Z,18.55
2023-12-10T11:55:31.208Z,14.44
2023-12-10T11:58:10.634Z,14.83
2023-12-10T12:01:04.980Z,16.37
2023-12-10T12:03:44.414Z,16.43
2023-12-10T12:06:28.936Z,17.87
2023-12-10T12:09:08.261Z,18.04
2023-12-10T12:11:48.357Z,18.38
2023-12-10T12:14:28.332Z,16.80
2023-12-10T12:17:09.401Z,14.98
2023-12-10T12:19:50.720Z,15.77
2023-12-10T12:22:35.122Z,16.37
2023-12-10T12:25:15.664Z,16.96
2023-12-10T12:27:55.101Z,18.96
2023-12-10T12:30:34.498Z,17.60
2023-12-10T12:33:14.042Z,17.66
2023-12-10T12:35:53.469Z,17.75
2023-12-10T12:38:37.811Z,17.99
2023-12-10T12:41:17.143Z,13.54
2023-12-10T12:43:56.498Z,11.44
2023-12-10T12:46:35.833Z,10.72
2023-12-10T12:49:16.478Z,10.11
2023-12-10T12:51:55.919Z,10.19
2023-12-10T12:54:40.497Z,10.42
2023-12-10T12:57:20.002Z,10.43
2023-12-10T12:59:59.307Z,10.46
2023-12-10T13:02:38.566Z,10.61
2023-12-10T13:05:19.600Z,10.68
2023-12-10T13:07:58.978Z,10.72
2023-12-10T13:10:43.882Z,10.86
2023-12-10T13:13:23.223Z,11.87
2023-12-10T13:16:03.087Z,11.65
2023-12-10T13:18:42.516Z,11.24
2023-12-10T13:21:24.426Z,11.12
2023-12-10T13:24:04.050Z,11.20
2023-12-10T13:26:48.399Z,11.30
2023-12-10T13:29:27.753Z,10.75
2023-12-10T13:32:07.061Z,10.70
2023-12-10T13:34:46.935Z,10.48
2023-12-10T13:37:26.511Z,12.00
2023-12-10T13:40:06.476Z,11.24
2023-12-10T13:42:51.137Z,10.59
2023-12-10T13:45:30.530Z,10.44
2023-12-10T13:48:09.876Z,10.41
2023-12-10T13:50:49.941Z,10.36
2023-12-10T13:53:29.294Z,10.42
2023-12-10T13:56:08.652Z,10.27
2023-12-10T13:58:52.997Z,10.30
2023-12-10T14:01:32.603Z,10.37
2023-12-10T14:04:12.451Z,10.27
2023-12-10T14:06:51.845Z,10.34
2023-12-10T14:09:31.249Z,10.48
2023-12-10T14:12:10.869Z,10.45
2023-12-10T14:14:55.954Z,10.43
2023-12-10T14:17:35.573Z,10.45
2023-12-10T14:20:16.782Z,10.20
2023-12-10T14:22:57.748Z,10.12
2023-12-10T14:25:37.133Z,10.05
2023-12-10T14:28:16.473Z,10.00
2023-12-10T14:31:00.886Z,10.22
2023-12-10T14:33:40.397Z,10.22
2023-12-10T14:36:19.845Z,10.18
2023-12-10T14:39:00.511Z,10.16
2023-12-10T14:41:39.825Z,10.13
2023-12-10T14:44:19.146Z,10.12
2023-12-10T14:47:03.738Z,10.09
2023-12-10T14:49:43.074Z,10.05
2023-12-10T14:52:25.259Z,10.10
2023-12-10T14:55:04.827Z,10.14
2023-12-10T14:57:44.527Z,10.06
2023-12-10T15:00:24.495Z,10.02
2023-12-10T15:03:09.262Z,9.99
2023-12-10T15:05:51.269Z,9.98
2023-12-10T15:08:31.286Z,9.94
2023-12-10T15:11:10.894Z,9.94
2023-12-10T15:13:50.150Z,9.86
2023-12-10T15:16:29.504Z,9.84
2023-12-10T15:19:14.007Z,9.89
2023-12-10T15:21:53.818Z,9.84
2023-12-10T15:24:33.263Z,9.79
2023-12-10T15:27:13.009Z,9.78
2023-12-10T15:29:52.287Z,9.75
2023-12-10T15:32:31.658Z,9.80
2023-12-10T15:35:17.172Z,9.79
2023-12-10T15:37:56.520Z,9.81
2023-12-10T15:40:38.579Z,9.88
2023-12-10T15:43:17.939Z,9.85
2023-12-10T15:45:57.357Z,9.78
2023-12-10T15:48:36.842Z,9.79
2023-12-10T15:51:21.565Z,9.79
2023-12-10T15:54:00.943Z,9.83
2023-12-10T15:56:40.791Z,9.86
2023-12-10T15:59:20.130Z,9.85
2023-12-10T16:01:59.495Z,9.83
2023-12-10T16:04:38.990Z,9.85
2023-12-10T16:07:24.397Z,9.85
2023-12-10T16:10:05.679Z,9.86
2023-12-10T16:12:45.173Z,9.86
2023-12-10T16:15:24.602Z,9.85
2023-12-10T16:18:03.976Z,9.83
2023-12-10T16:20:43.895Z,9.85
2023-12-10T16:23:28.401Z,9.82
2023-12-10T16:26:07.675Z,9.82
2023-12-10T16:28:46.979Z,9.82
2023-12-10T16:31:26.266Z,9.81
2023-12-10T16:34:06.195Z,9.81
2023-12-10T16:36:45.557Z,9.84
2023-12-10T16:39:30.021Z,9.86
2023-12-10T16:42:09.336Z,9.86
2023-12-10T16:44:48.660Z,9.87
2023-12-10T16:47:28.341Z,9.89
2023-12-10T16:50:09.778Z,9.88
2023-12-10T16:52:49.144Z,10.08
2023-12-10T16:55:33.572Z,10.10
2023-12-10T16:58:12.923Z,10.03
2023-12-10T17:00:53.135Z,9.96
2023-12-10T17:03:32.789Z,9.94
2023-12-10T17:06:12.572Z,9.92
2023-12-10T17:08:52.082Z,9.87
2023-12-10T17:11:36.454Z,9.83
2023-12-10T17:14:15.804Z,9.80
2023-12-10T17:16:55.247Z,9.78
2023-12-10T17:19:35.515Z,9.75
2023-12-10T17:22:14.916Z,9.74
2023-12-10T17:24:54.453Z,9.74
2023-12-10T17:27:38.961Z,9.71
2023-12-10T17:30:19.510Z,9.70
2023-12-10T17:33:00.028Z,9.69
2023-12-10T17:35:40.371Z,9.65
2023-12-10T17:38:20.196Z,9.65
2023-12-10T17:40:59.521Z,9.65
2023-12-10T17:43:43.926Z,9.61
2023-12-10T17:46:23.340Z,9.58
2023-12-10T17:49:02.795Z,9.58
2023-12-10T17:51:42.198Z,9.54
2023-12-10T17:54:22.018Z,9.51
2023-12-10T17:57:01.335Z,9.50
2023-12-10T17:59:45.901Z,9.50
2023-12-10T18:02:25.211Z,9.51
2023-12-10T18:05:04.609Z,9.52
2023-12-10T18:07:43.971Z,9.52
2023-12-10T18:10:24.138Z,9.52
2023-12-10T18:13:03.632Z,9.50
2023-12-10T18:15:48.130Z,9.49
2023-12-10T18:18:27.684Z,9.50
2023-12-10T18:21:07.130Z,9.51
2023-12-10T18:23:46.441Z,9.61
2023-12-10T18:26:25.770Z,9.65
2023-12-10T18:29:06.690Z,9.63
2023-12-10T18:31:51.071Z,9.61
2023-12-10T18:34:30.404Z,9.62
2023-12-10T18:37:10.005Z,9.61
2023-12-10T18:39:49.458Z,9.59
2023-12-10T18:42:28.868Z,9.54
2023-12-10T18:45:08.161Z,9.53
2023-12-10T18:47:52.506Z,9.55
2023-12-10T18:50:31.791Z,9.53
2023-12-10T18:53:11.172Z,9.51
2023-12-10T18:55:50.520Z,9.53
2023-12-10T18:58:31.439Z,9.46
2023-12-10T19:01:11.126Z,9.46
2023-12-10T19:03:55.579Z,9.44
2023-12-10T19:06:34.996Z,9.37
2023-12-10T19:09:14.398Z,9.36
2023-12-10T19:11:53.735Z,9.35
2023-12-10T19:14:35.665Z,9.37
2023-12-10T19:17:15.309Z,9.37
2023-12-10T19:20:02.708Z,9.38
2023-12-10T19:22:42.692Z,9.37
2023-12-10T19:25:22.640Z,9.36
2023-12-10T19:28:02.008Z,9.35
2023-12-10T19:30:41.451Z,9.34
2023-12-10T19:33:21.114Z,9.35
2023-12-10T19:36:06.188Z,9.33
2023-12-10T19:38:45.916Z,9.31
2023-12-10T19:41:25.344Z,9.29
2023-12-10T19:44:04.912Z,9.35
2023-12-10T19:46:44.230Z,9.30
2023-12-10T19:49:24.129Z,9.28
2023-12-10T19:52:08.594Z,9.28
2023-12-10T19:54:48.226Z,9.32
2023-12-10T19:57:28.075Z,9.32
2023-12-10T20:00:07.602Z,9.30
2023-12-10T20:02:46.904Z,9.29
2023-12-10T20:05:26.472Z,9.32
2023-12-10T20:08:10.916Z,9.31
2023-12-10T20:10:52.737Z,9.35
2023-12-10T20:13:32.574Z,9.27
2023-12-10T20:16:13.366Z,9.22
2023-12-10T20:18:52.772Z,9.20
2023-12-10T20:21:32.174Z,9.16
2023-12-10T20:24:27.473Z,9.09
2023-12-10T20:27:13.858Z,9.06
2023-12-10T20:29:53.135Z,9.03
2023-12-10T20:32:32.468Z,8.99
2023-12-10T20:35:12.915Z,8.95
2023-12-10T20:37:52.261Z,8.90
2023-12-10T20:40:36.649Z,8.87
2023-12-10T20:43:16.146Z,8.87
2023-12-10T20:45:55.521Z,8.87
2023-12-10T20:48:34.917Z,8.84
2023-12-10T20:51:14.526Z,8.84
2023-12-10T20:53:54.294Z,8.84
2023-12-10T20:56:38.616Z,8.88
2023-12-10T20:59:18.087Z,8.90
2023-12-10T21:01:57.472Z,8.91
2023-12-10T21:04:36.771Z,8.99
2023-12-10T21:07:16.145Z,9.00
2023-12-10T21:09:55.655Z,9.03
2023-12-10T21:12:40.134Z,9.10
2023-12-10T21:15:19.778Z,9.23
2023-12-10T21:17:59.182Z,9.31
2023-12-10T21:20:38.515Z,9.43
2023-12-10T21:23:17.940Z,9.35
2023-12-10T21:25:57.265Z,9.43
2023-12-10T21:28:41.589Z,9.39
2023-12-10T21:31:22.505Z,9.44
2023-12-10T21:34:04.332Z,9.60
2023-12-10T21:36:43.727Z,9.54
2023-12-10T21:39:23.005Z,9.50
2023-12-10T21:42:02.267Z,9.61
2023-12-10T21:44:46.615Z,9.60
2023-12-10T21:47:26.421Z,9.68
2023-12-10T21:50:06.076Z,9.68
2023-12-10T21:52:45.620Z,9.62
2023-12-10T21:55:24.989Z,9.60
2023-12-10T21:58:05.748Z,9.66
2023-12-10T22:00:50.202Z,9.69
2023-12-10T22:03:29.556Z,9.65
2023-12-10T22:06:08.885Z,9.80
2023-12-10T22:08:48.162Z,9.80
2023-12-10T22:11:27.462Z,9.77
2023-12-10T22:14:06.948Z,9.75
2023-12-10T22:16:51.370Z,9.88
2023-12-10T22:19:30.656Z,9.89
2023-12-10T22:22:09.966Z,9.88
2023-12-10T22:24:49.232Z,9.99
2023-12-10T22:27:29.027Z,10.03
2023-12-10T22:30:08.753Z,9.94
2023-12-10T22:32:58.071Z,9.93
2023-12-10T22:35:37.370Z,9.89
2023-12-10T22:38:16.632Z,9.93
2023-12-10T22:40:55.883Z,9.97
2023-12-10T22:43:35.158Z,10.01
2023-12-10T22:46:14.602Z,9.98
2023-12-10T22:48:59.298Z,10.04
2023-12-10T22:51:38.766Z,10.01
2023-12-10T22:54:18.077Z,9.98
2023-12-10T22:56:57.885Z,9.96
2023-12-10T22:59:37.213Z,9.96
2023-12-10T23:02:16.624Z,9.91
2023-12-10T23:05:06.216Z,9.91
2023-12-10T23:07:45.521Z,9.90
2023-12-10T23:10:25.166Z,9.93
2023-12-10T23:13:04.547Z,9.91
2023-12-10T23:15:43.947Z,9.93
2023-12-10T23:18:23.373Z,9.92
2023-12-10T23:21:07.813Z,9.93
2023-12-10T23:23:47.324Z,9.94
2023-12-10T23:26:26.661Z,9.98
2023-12-10T23:29:06.985Z,9.97
2023-12-10T23:31:46.325Z,9.94
2023-12-10T23:34:25.732Z,9.96
2023-12-10T23:37:10.206Z,9.92
2023-12-10T23:39:51.883Z,9.96
2023-12-10T23:42:31.272Z,10.03
2023-12-10T23:45:11.146Z,10.24
2023-12-10T23:47:50.514Z,10.17
2023-12-10T23:50:29.836Z,10.09
2023-12-10T23:53:14.268Z,10.06
2023-12-10T23:55:53.663Z,10.17
2023-12-10T23:58:32.962Z,10.16
